Time;durP1;ratioP1;P1;durP2;ratioP2;P2;SDS_P1;SDS_P2;PMS_P1;PMS_P2;Temp;Humidity;BMP_temperature;BMP_pressure;BME280_temperature;BME280_humidity;BME280_pressure;Samples;Min_cycle;Max_cycle;Signal;HPM_P1;HPM_P2
2022/01/18 00:01:38;;;;;;;12.98;5.93;;;;;;;0.63;100.00;103916.97;5069774;28;20051;-76
2022/01/18 00:04:07;;;;;;;19.65;7.82;;;;;;;0.59;100.00;103914.06;5071919;28;20052;-77
2022/01/18 00:06:35;;;;;;;17.52;7.43;;;;;;;0.62;100.00;103909.00;5071738;28;20058;-77
2022/01/18 00:09:04;;;;;;;11.55;5.60;;;;;;;0.55;100.00;103919.13;5069798;28;20071;-77
2022/01/18 00:11:40;;;;;;;13.50;5.63;;;;;;;0.52;100.00;103929.47;5070571;28;20101;-76
2022/01/18 00:14:14;;;;;;;9.52;5.38;;;;;;;0.46;100.00;103934.38;5068868;28;20044;-77
2022/01/18 00:17:00;;;;;;;13.63;4.93;;;;;;;0.40;100.00;103934.00;5070720;28;20048;-76
2022/01/18 00:19:28;;;;;;;13.88;5.30;;;;;;;0.41;100.00;103932.25;5065562;28;20056;-77
2022/01/18 00:22:09;;;;;;;11.52;5.43;;;;;;;0.39;100.00;103937.44;5071224;28;20123;-76
2022/01/18 00:24:39;;;;;;;12.55;5.65;;;;;;;0.41;100.00;103942.78;5070480;28;20139;-77
2022/01/18 00:27:11;;;;;;;10.60;4.55;;;;;;;0.36;100.00;103932.91;5067310;28;20052;-77
2022/01/18 00:29:46;;;;;;;10.40;4.88;;;;;;;0.33;100.00;103937.09;5067628;28;20075;-77
2022/01/18 00:32:22;;;;;;;13.20;5.60;;;;;;;0.32;100.00;103937.88;5070763;28;20055;-77
2022/01/18 00:34:56;;;;;;;13.90;5.60;;;;;;;0.25;100.00;103938.34;5069985;28;20048;-77
2022/01/18 00:37:28;;;;;;;9.20;4.75;;;;;;;0.22;100.00;103941.66;5065268;28;20140;-77
2022/01/18 00:39:56;;;;;;;15.75;5.95;;;;;;;0.21;100.00;103944.22;5068923;28;20048;-77
2022/01/18 00:42:25;;;;;;;10.07;4.93;;;;;;;0.17;100.00;103954.56;5067750;28;20040;-77
2022/01/18 00:44:53;;;;;;;16.52;5.30;;;;;;;0.16;100.00;103952.72;5070845;28;20311;-77
2022/01/18 00:47:21;;;;;;;15.02;6.05;;;;;;;0.14;100.00;103948.22;5067091;28;20052;-77
2022/01/18 00:49:57;;;;;;;13.93;6.13;;;;;;;0.14;100.00;103956.97;5066920;28;20056;-77
2022/01/18 00:52:26;;;;;;;13.77;5.13;;;;;;;0.12;100.00;103942.88;5066894;28;20076;-76
2022/01/18 00:54:54;;;;;;;14.20;5.88;;;;;;;0.12;100.00;103945.47;5066511;28;20051;-76
2022/01/18 00:57:22;;;;;;;10.32;5.22;;;;;;;0.09;100.00;103947.03;5071872;28;20059;-76
2022/01/18 01:00:16;;;;;;;12.02;4.97;;;;;;;0.00;100.00;103939.50;5066276;28;20643;-77
2022/01/18 01:02:44;;;;;;;14.68;5.38;;;;;;;0.03;100.00;103934.41;5067875;28;20058;-76
2022/01/18 01:05:12;;;;;;;12.10;4.78;;;;;;;-0.04;100.00;103934.84;5070064;28;20053;-77
2022/01/18 01:11:43;;;;;;;20.25;6.30;;;;;;;-0.11;100.00;103935.28;5069625;28;20055;-73
2022/01/18 01:14:35;;;;;;;25.42;9.30;;;;;;;-0.12;100.00;103938.72;5068493;28;20086;-73
2022/01/18 01:18:20;;;;;;;26.42;7.63;;;;;;;-0.12;100.00;103942.28;5072188;28;20121;-73
2022/01/18 01:47:32;;;;;;;15.85;5.70;;;;;;;-0.10;100.00;103932.75;5070497;28;20063;-73
2022/01/18 02:04:35;;;;;;;9.55;4.47;;;;;;;-0.22;100.00;103943.41;4826334;28;6402093;-74
2022/01/18 02:07:49;;;;;;;12.93;5.03;;;;;;;-0.21;100.00;103939.97;5041557;28;20132;-74
2022/01/18 02:11:10;;;;;;;9.77;4.53;;;;;;;-0.21;100.00;103937.34;5047378;28;20049;-74
2022/01/18 02:14:24;;;;;;;13.63;4.53;;;;;;;-0.25;100.00;103935.34;5043040;28;20100;-72
2022/01/18 02:31:46;;;;;;;21.95;5.75;;;;;;;-0.39;100.00;103931.88;4990404;28;20046;-75
2022/01/18 02:34:17;;;;;;;25.52;7.25;;;;;;;-0.43;100.00;103935.09;4989954;28;20068;-75
2022/01/18 02:36:46;;;;;;;14.77;5.45;;;;;;;-0.45;100.00;103926.22;4990960;28;20181;-75
2022/01/18 02:39:19;;;;;;;13.73;5.55;;;;;;;-0.49;100.00;103926.84;4988758;28;20090;-77
2022/01/18 02:41:58;;;;;;;11.18;4.72;;;;;;;-0.50;100.00;103925.03;4991612;28;20644;-75
2022/01/18 02:44:46;;;;;;;11.50;5.57;;;;;;;-0.52;100.00;103931.91;4985339;28;20093;-75
2022/01/18 03:19:08;;;;;;;15.35;5.65;;;;;;;-0.58;100.00;103928.88;4972818;28;20515;-72
2022/01/18 03:30:02;;;;;;;10.45;4.45;;;;;;;-0.57;100.00;103933.34;4966198;28;20046;-75
2022/01/18 03:33:27;;;;;;;18.15;4.72;;;;;;;-0.53;100.00;103932.69;4955883;28;20787;-72
2022/01/18 03:46:39;;;;;;;9.02;4.95;;;;;;;-0.59;100.00;103938.47;4951568;28;20046;-75
2022/01/18 03:52:52;;;;;;;11.40;4.27;;;;;;;-0.57;100.00;103928.09;4970519;28;20147;-75
2022/01/18 03:55:22;;;;;;;10.70;4.40;;;;;;;-0.55;100.00;103936.06;4974639;28;20314;-75
2022/01/18 03:57:50;;;;;;;8.95;4.20;;;;;;;-0.58;100.00;103939.38;4972938;28;20074;-78
2022/01/18 04:08:02;;;;;;;8.13;3.95;;;;;;;-0.61;100.00;103945.34;4975410;28;20054;-75
2022/01/18 04:28:43;;;;;;;6.47;3.53;;;;;;;-0.49;100.00;103967.94;4973205;28;20243;-73
2022/01/18 04:35:47;;;;;;;6.57;3.38;;;;;;;-0.49;100.00;103960.06;4971798;28;20116;-73
2022/01/18 04:55:10;;;;;;;8.48;3.47;;;;;;;-0.35;100.00;103958.31;4974329;28;20119;-73
2022/01/18 05:08:13;;;;;;;5.10;2.53;;;;;;;-0.34;100.00;103974.16;4946117;28;20042;-73
2022/01/18 05:11:39;;;;;;;8.02;3.75;;;;;;;-0.38;100.00;103967.78;4945003;28;20610;-74
2022/01/18 05:15:32;;;;;;;9.32;3.30;;;;;;;-0.39;100.00;103973.84;4960417;28;20057;-74
2022/01/18 05:28:31;;;;;;;7.05;2.95;;;;;;;-0.47;100.00;103961.06;4968522;28;20082;-71
2022/01/18 05:31:42;;;;;;;5.82;2.78;;;;;;;-0.48;100.00;103960.13;4969389;28;20061;-74
2022/01/18 05:34:52;;;;;;;6.97;3.00;;;;;;;-0.49;100.00;103953.09;4971866;28;20557;-72
2022/01/18 05:38:24;;;;;;;7.40;2.75;;;;;;;-0.51;100.00;103959.03;4968806;28;20452;-73
2022/01/18 05:45:49;;;;;;;4.45;2.22;;;;;;;-0.54;100.00;103965.00;4970844;28;20054;-72
2022/01/18 05:48:53;;;;;;;4.22;2.42;;;;;;;-0.57;100.00;103970.06;4970267;28;20455;-74
2022/01/18 05:51:58;;;;;;;3.78;2.17;;;;;;;-0.58;100.00;103969.16;4973363;28;20050;-71
2022/01/18 05:55:20;;;;;;;11.82;2.92;;;;;;;-0.60;100.00;103960.25;4967845;28;20053;-72
2022/01/18 05:58:30;;;;;;;10.32;2.30;;;;;;;-0.58;100.00;103953.41;4970889;28;20539;-74
2022/01/18 06:15:41;;;;;;;7.60;2.53;;;;;;;-0.69;100.00;103948.28;4963317;28;20050;-73
2022/01/18 06:33:31;;;;;;;5.03;2.45;;;;;;;-0.67;100.00;103960.69;4959749;28;20569;-73
2022/01/18 06:37:26;;;;;;;5.15;2.65;;;;;;;-0.64;100.00;103963.50;4970990;28;20137;-73
2022/01/18 06:47:18;;;;;;;12.00;4.22;;;;;;;-0.44;100.00;103964.78;4965079;28;20078;-73
2022/01/18 06:50:02;;;;;;;10.27;3.50;;;;;;;-0.35;100.00;103963.56;4974943;28;20043;-76
2022/01/18 06:52:30;;;;;;;8.57;3.83;;;;;;;-0.34;100.00;103966.28;4973842;28;20068;-76
2022/01/18 06:58:26;;;;;;;11.00;3.70;;;;;;;-0.24;100.00;103965.13;4975907;28;20181;-76
2022/01/18 07:00:56;;;;;;;9.00;4.30;;;;;;;-0.19;100.00;103958.44;4975353;28;20181;-76
2022/01/18 07:03:24;;;;;;;13.23;4.65;;;;;;;-0.18;100.00;103955.00;4976578;28;20060;-76
2022/01/18 07:05:52;;;;;;;10.18;4.78;;;;;;;-0.16;100.00;103958.63;4974984;28;20054;-76
2022/01/18 07:08:19;;;;;;;11.05;4.40;;;;;;;-0.15;100.00;103968.34;4977735;28;20047;-76
2022/01/18 07:10:47;;;;;;;10.88;4.07;;;;;;;-0.12;100.00;103968.53;4977319;28;20073;-76
2022/01/18 07:13:15;;;;;;;15.27;4.63;;;;;;;-0.07;100.00;103967.09;4973784;28;20050;-76
2022/01/18 07:16:08;;;;;;;8.90;4.68;;;;;;;-0.04;100.00;103962.00;4974659;28;20065;-76
2022/01/18 07:18:36;;;;;;;20.75;5.68;;;;;;;0.04;100.00;103975.63;4974981;28;20526;-76
2022/01/18 07:21:04;;;;;;;16.02;5.00;;;;;;;0.08;100.00;103969.72;4975330;28;20537;-76
2022/01/18 07:23:40;;;;;;;12.63;4.00;;;;;;;0.12;100.00;103970.81;4974533;28;20130;-72
2022/01/18 07:34:08;;;;;;;8.35;4.05;;;;;;;0.28;100.00;103967.44;4928361;28;20180;-72
2022/01/18 07:37:04;;;;;;;11.32;4.05;;;;;;;0.34;100.00;103973.03;4934780;28;20545;-75
2022/01/18 07:39:32;;;;;;;9.73;4.90;;;;;;;0.37;100.00;103986.34;4936519;28;20134;-75
2022/01/18 07:42:00;;;;;;;14.05;5.15;;;;;;;0.41;100.00;103984.81;4933582;28;20122;-76
2022/01/18 07:44:29;;;;;;;11.80;5.00;;;;;;;0.46;100.00;103988.63;4934132;28;20127;-75
2022/01/18 07:46:57;;;;;;;13.90;4.95;;;;;;;0.51;100.00;103987.19;4933184;28;20113;-76
2022/01/18 07:49:25;;;;;;;13.43;4.53;;;;;;;0.56;100.00;103983.09;4932988;28;20138;-76
2022/01/18 07:51:52;;;;;;;14.90;5.70;;;;;;;0.69;100.00;103988.28;4937630;28;20493;-77
2022/01/18 07:54:21;;;;;;;11.95;5.57;;;;;;;0.76;100.00;103976.41;4938285;28;20047;-77
2022/01/18 07:56:49;;;;;;;13.70;5.00;;;;;;;0.76;100.00;103988.66;4931369;28;20059;-75
2022/01/18 07:59:17;;;;;;;16.30;6.32;;;;;;;0.78;100.00;103982.66;4930578;28;20051;-75
2022/01/18 08:02:09;;;;;;;12.50;4.97;;;;;;;0.82;100.00;103996.88;4933577;28;21942;-75
2022/01/18 08:05:01;;;;;;;15.70;6.72;;;;;;;0.93;100.00;103991.44;4932112;28;20070;-75
2022/01/18 08:07:29;;;;;;;34.97;10.13;;;;;;;1.04;100.00;103989.44;4934880;28;20043;-76
2022/01/18 08:09:58;;;;;;;25.42;8.82;;;;;;;1.07;100.00;103989.63;4937307;28;20134;-72
2022/01/18 08:12:27;;;;;;;141.18;56.33;;;;;;;1.20;100.00;103988.59;4944136;29;20518;-68
2022/01/18 08:15:00;;;;;;;163.10;89.57;;;;;;;1.33;100.00;103984.94;4942434;28;20496;-69
2022/01/18 08:17:50;;;;;;;47.55;28.95;;;;;;;1.32;100.00;103984.84;4933522;28;20226;-69
2022/01/18 08:20:18;;;;;;;41.70;16.20;;;;;;;1.41;100.00;103980.09;4933491;28;20056;-70
2022/01/18 08:22:47;;;;;;;48.78;17.30;;;;;;;1.48;100.00;103985.78;4941548;28;20097;-69
2022/01/18 08:25:17;;;;;;;40.65;19.88;;;;;;;1.55;100.00;103989.69;4941451;28;20161;-69
2022/01/18 08:28:08;;;;;;;;;;;;;;;1.70;100.00;103989.59;4937009;28;21014;-69
2022/01/18 08:31:00;;;;;;;45.63;11.70;;;;;;;1.72;100.00;103984.41;4933167;28;19930;-69
2022/01/18 08:33:28;;;;;;;58.45;11.38;;;;;;;1.68;100.00;103991.25;4931671;28;20066;-69
2022/01/18 08:35:56;;;;;;;56.38;38.83;;;;;;;1.73;100.00;103999.41;4935770;28;20066;-70
2022/01/18 08:38:24;;;;;;;76.93;18.05;;;;;;;1.71;100.00;103998.41;4935449;28;20045;-70
2022/01/18 08:40:54;;;;;;;26.38;8.95;;;;;;;1.71;100.00;103999.31;4931018;28;20157;-70
2022/01/18 08:43:23;;;;;;;50.17;12.73;;;;;;;1.78;100.00;104001.44;4931715;28;20173;-70
2022/01/18 08:45:55;;;;;;;46.45;12.15;;;;;;;1.79;100.00;103998.00;4932946;28;20059;-70
2022/01/18 08:48:31;;;;;;;35.90;9.88;;;;;;;1.83;100.00;104005.25;4902306;29;20053;-70
2022/01/18 08:51:01;;;;;;;46.20;11.50;;;;;;;1.86;100.00;104005.41;4928004;28;20043;-70
2022/01/18 08:53:33;;;;;;;18.85;7.55;;;;;;;1.91;100.00;104004.75;4931109;28;20055;-70
2022/01/18 08:56:05;;;;;;;105.57;52.13;;;;;;;1.94;100.00;104012.81;4932152;28;20039;-70
2022/01/18 08:58:36;;;;;;;79.00;32.45;;;;;;;1.99;100.00;104016.59;4929908;28;20142;-70
2022/01/18 09:01:27;;;;;;;41.08;22.27;;;;;;;2.03;100.00;104010.72;4934375;28;20056;-70
2022/01/18 09:04:11;;;;;;;41.58;19.50;;;;;;;2.07;100.00;104015.31;4971322;28;20054;-71
2022/01/18 09:07:08;;;;;;;21.83;9.82;;;;;;;2.12;100.00;104015.56;4972280;28;20061;-70
2022/01/18 09:09:38;;;;;;;39.90;22.50;;;;;;;2.21;100.00;104018.66;4972508;28;20054;-71
2022/01/18 09:12:48;;;;;;;37.58;17.65;;;;;;;2.27;100.00;103997.03;4974022;28;20451;-70
2022/01/18 09:18:19;;;;;;;26.17;9.07;;;;;;;2.38;100.00;103998.47;4972258;28;20150;-71
2022/01/18 09:21:07;;;;;;;21.55;8.57;;;;;;;2.47;100.00;104001.63;4972952;28;20133;-72
2022/01/18 09:23:53;;;;;;;47.17;11.13;;;;;;;2.50;100.00;103999.09;4973682;28;20054;-72
2022/01/18 09:26:23;;;;;;;20.67;7.53;;;;;;;2.60;100.00;103998.75;4970269;28;20054;-69
2022/01/18 09:29:10;;;;;;;25.10;8.77;;;;;;;2.67;100.00;104009.63;4967914;28;20402;-71
2022/01/18 09:31:42;;;;;;;30.85;9.02;;;;;;;2.71;100.00;104001.97;4968418;28;20539;-70
2022/01/18 09:34:18;;;;;;;50.22;16.83;;;;;;;2.75;100.00;104010.94;4968106;28;20043;-70
2022/01/18 09:37:03;;;;;;;34.42;9.52;;;;;;;2.83;100.00;104014.88;4972829;28;20733;-70
2022/01/18 09:39:57;;;;;;;84.25;38.00;;;;;;;2.87;100.00;104006.28;4969216;28;20101;-70
2022/01/18 09:42:33;;;;;;;30.38;10.25;;;;;;;2.91;100.00;104007.31;4970644;28;20109;-75
2022/01/18 09:45:07;;;;;;;28.40;9.32;;;;;;;2.97;100.00;104015.56;4975069;28;20324;-74
2022/01/18 09:47:36;;;;;;;41.13;15.60;;;;;;;2.95;100.00;104007.56;4972124;28;20081;-75
2022/01/18 09:50:05;;;;;;;53.53;14.57;;;;;;;3.01;100.00;104011.34;4969142;28;20054;-75
2022/01/18 09:52:34;;;;;;;34.10;10.93;;;;;;;3.04;100.00;104014.13;4974179;28;20153;-75
2022/01/18 09:55:04;;;;;;;32.72;9.90;;;;;;;3.05;100.00;104018.56;4969384;28;20070;-71
2022/01/18 09:57:35;;;;;;;43.75;12.07;;;;;;;3.06;100.00;104012.47;4968850;28;20046;-75
2022/01/18 10:00:07;;;;;;;49.75;12.85;;;;;;;3.12;100.00;104020.69;4970195;28;20038;-75
2022/01/18 10:02:35;;;;;;;31.90;12.85;;;;;;;3.13;100.00;104012.88;4974356;28;20117;-75
2022/01/18 10:05:21;;;;;;;61.55;16.65;;;;;;;3.10;100.00;104022.34;4969770;28;20066;-71
2022/01/18 10:08:10;;;;;;;33.08;13.35;;;;;;;3.17;100.00;104004.25;4970711;28;20105;-71
2022/01/18 10:13:31;;;;;;;40.80;16.25;;;;;;;3.27;100.00;104010.91;4976143;28;20108;-74
2022/01/18 10:16:19;;;;;;;36.55;16.40;;;;;;;3.29;100.00;104011.88;4972505;28;20043;-70
2022/01/18 10:18:49;;;;;;;52.15;20.67;;;;;;;3.35;100.00;104008.63;4976566;28;20495;-74
2022/01/18 10:21:44;;;;;;;45.22;15.68;;;;;;;3.38;100.00;104011.41;4982500;28;20054;-71
2022/01/18 10:24:35;;;;;;;45.85;15.82;;;;;;;3.40;100.00;104000.94;4972292;28;20050;-71
2022/01/18 10:27:23;;;;;;;42.05;16.15;;;;;;;3.40;100.00;104007.09;4975777;28;20133;-73
2022/01/18 10:29:54;;;;;;;45.28;15.13;;;;;;;3.45;100.00;104008.22;4975669;28;20058;-74
2022/01/18 10:32:32;;;;;;;36.38;14.82;;;;;;;3.49;100.00;104011.91;4974061;28;20676;-72
2022/01/18 10:35:08;;;;;;;50.25;14.63;;;;;;;3.48;100.00;104011.03;4977073;28;20046;-70
2022/01/18 10:37:42;;;;;;;33.10;14.13;;;;;;;3.52;100.00;104013.00;4973956;28;20059;-71
2022/01/18 10:40:16;;;;;;;38.47;12.18;;;;;;;3.60;100.00;104009.81;4976730;28;20086;-75
2022/01/18 10:42:47;;;;;;;29.08;10.20;;;;;;;3.53;100.00;104009.50;4972951;28;20460;-75
2022/01/18 10:45:23;;;;;;;27.70;9.93;;;;;;;3.59;100.00;104006.25;4975526;28;20056;-71
2022/01/18 10:47:57;;;;;;;33.72;11.20;;;;;;;3.57;100.00;104010.56;4975349;28;20080;-74
2022/01/18 10:50:31;;;;;;;29.33;11.00;;;;;;;3.55;100.00;104006.94;4973883;28;20101;-74
2022/01/18 10:53:18;;;;;;;25.73;9.57;;;;;;;3.62;100.00;104014.31;4976092;28;20062;-71
2022/01/18 10:55:51;;;;;;;25.88;8.80;;;;;;;3.62;100.00;104011.66;4975619;28;20328;-71
2022/01/18 11:01:17;;;;;;;31.15;8.07;;;;;;;3.77;100.00;104010.59;4973145;28;20065;-75
2022/01/18 11:04:17;;;;;;;25.38;7.93;;;;;;;3.75;100.00;104005.25;4977780;28;20066;-71
2022/01/18 11:06:58;;;;;;;22.98;7.85;;;;;;;3.84;100.00;103999.47;4976195;28;20128;-75
2022/01/18 11:09:26;;;;;;;34.22;11.68;;;;;;;3.85;100.00;103996.03;4973726;28;20047;-75
2022/01/18 11:11:54;;;;;;;26.00;9.60;;;;;;;3.96;100.00;104001.78;4975119;28;20046;-74
2022/01/18 11:14:23;;;;;;;31.83;9.52;;;;;;;3.89;100.00;103992.66;4988309;28;20129;-75
2022/01/18 11:16:52;;;;;;;26.60;10.00;;;;;;;3.97;100.00;103991.28;4984431;28;20167;-74
2022/01/18 11:19:31;;;;;;;42.67;16.08;;;;;;;3.96;100.00;103984.19;4978451;28;20081;-74
2022/01/18 11:22:00;;;;;;;28.70;10.27;;;;;;;4.00;100.00;103994.09;4980358;28;20148;-75
2022/01/18 11:24:29;;;;;;;30.13;10.50;;;;;;;4.07;100.00;103982.03;4985386;28;20137;-75
2022/01/18 11:27:00;;;;;;;34.22;12.25;;;;;;;4.10;100.00;103988.38;4980739;28;20089;-74
2022/01/18 11:29:29;;;;;;;36.42;12.02;;;;;;;4.08;100.00;103990.00;4985703;28;20042;-75
2022/01/18 11:31:57;;;;;;;39.28;10.95;;;;;;;3.92;100.00;103987.53;4980108;28;20137;-74
2022/01/18 11:34:37;;;;;;;29.73;10.68;;;;;;;3.93;100.00;103992.91;4984406;28;20054;-75
2022/01/18 11:37:12;;;;;;;30.95;11.48;;;;;;;4.01;100.00;103987.94;4984660;28;20046;-74
2022/01/18 11:39:41;;;;;;;38.17;14.57;;;;;;;4.02;100.00;103996.75;4982719;28;20448;-74
2022/01/18 11:42:11;;;;;;;26.15;10.20;;;;;;;4.05;100.00;103991.63;4985999;28;20065;-74
2022/01/18 11:44:43;;;;;;;30.67;10.65;;;;;;;4.03;100.00;103980.09;4981443;28;20144;-74
2022/01/18 11:47:11;;;;;;;43.55;11.27;;;;;;;4.05;100.00;103979.34;4985900;28;20515;-73
2022/01/18 11:49:48;;;;;;;40.70;12.35;;;;;;;4.05;100.00;103973.13;4981535;28;20109;-74
2022/01/18 11:52:33;;;;;;;38.80;12.38;;;;;;;4.15;100.00;103974.44;4983095;28;20389;-73
2022/01/18 11:55:03;;;;;;;38.13;11.88;;;;;;;4.11;100.00;103974.31;4979807;28;20049;-74
2022/01/18 11:57:35;;;;;;;42.40;13.40;;;;;;;4.14;100.00;103977.91;4974708;28;20050;-74
2022/01/18 12:00:29;;;;;;;33.15;11.63;;;;;;;4.19;100.00;103972.03;4972085;28;20121;-71
2022/01/18 12:03:17;;;;;;;42.65;14.10;;;;;;;4.21;100.00;103974.72;4974478;28;20114;-75
2022/01/18 12:05:46;;;;;;;39.72;13.98;;;;;;;4.31;100.00;103966.38;4983474;28;20527;-75
2022/01/18 12:08:34;;;;;;;39.45;13.55;;;;;;;4.26;100.00;103955.59;4980902;28;20054;-74
2022/01/18 12:11:04;;;;;;;36.17;11.38;;;;;;;4.29;100.00;103952.16;4985468;28;20065;-75
2022/01/18 12:13:58;;;;;;;;;;;;;;;4.38;100.00;103959.63;4982503;28;20505;-75
2022/01/18 12:16:29;;;;;;;36.67;12.43;;;;;;;4.37;100.00;103950.75;4974730;28;20057;-75
2022/01/18 12:19:12;;;;;;;53.75;13.90;;;;;;;4.26;100.00;103955.59;4975124;28;20381;-70
2022/01/18 12:22:07;;;;;;;43.70;13.48;;;;;;;4.40;100.00;103942.06;4980531;28;20042;-71
2022/01/18 12:25:34;;;;;;;41.63;12.63;;;;;;;4.43;100.00;103950.13;4976693;28;20053;-71
2022/01/18 12:38:50;;;;;;;43.90;14.38;;;;;;;4.48;100.00;103943.31;4978915;28;20042;-71
2022/01/18 12:41:45;;;;;;;51.35;17.23;;;;;;;4.53;100.00;103940.84;4990758;28;20043;-70
2022/01/18 12:47:29;;;;;;;49.45;18.13;;;;;;;4.54;100.00;103946.19;4986696;28;20468;-71
2022/01/18 12:50:19;;;;;;;53.63;19.67;;;;;;;4.64;100.00;103932.50;4976719;28;20109;-70
2022/01/18 12:53:01;;;;;;;45.03;15.75;;;;;;;4.71;100.00;103938.06;4980717;28;20247;-70
2022/01/18 12:55:40;;;;;;;52.38;18.02;;;;;;;4.72;100.00;103931.97;4972746;28;20082;-76
2022/01/18 12:58:10;;;;;;;58.72;17.95;;;;;;;4.66;100.00;103927.28;4974045;28;20101;-75
2022/01/18 13:00:42;;;;;;;97.22;36.42;;;;;;;4.69;100.00;103924.78;4970421;28;20057;-75
2022/01/18 13:03:10;;;;;;;59.97;17.83;;;;;;;4.64;100.00;103921.94;4979337;28;20066;-75
2022/01/18 13:05:42;;;;;;;68.13;21.65;;;;;;;4.64;100.00;103926.31;4986386;28;20125;-75
2022/01/18 13:08:12;;;;;;;67.15;20.20;;;;;;;4.66;100.00;103928.19;4982199;28;20039;-76
2022/01/18 13:10:43;;;;;;;57.05;17.95;;;;;;;4.63;100.00;103914.84;4984140;28;20062;-75
2022/01/18 13:13:14;;;;;;;57.35;17.70;;;;;;;4.73;100.00;103920.50;4982346;28;20063;-76
2022/01/18 13:16:05;;;;;;;60.40;19.08;;;;;;;4.75;100.00;103910.88;4983277;28;20073;-73
2022/01/18 13:27:10;;;;;;;53.78;16.55;;;;;;;4.78;100.00;103909.28;4977986;28;20058;-77
2022/01/18 13:52:22;;;;;;;63.10;20.95;;;;;;;4.83;100.00;103878.59;4911436;29;20577;-72
2022/01/18 13:55:07;;;;;;;57.90;17.75;;;;;;;4.91;100.00;103878.94;4889696;29;20092;-78
2022/01/18 13:57:35;;;;;;;66.18;20.08;;;;;;;4.86;100.00;103881.38;4913004;29;20047;-77
2022/01/18 14:00:10;;;;;;;58.75;19.88;;;;;;;4.92;100.00;103871.88;4911746;29;20056;-78
2022/01/18 14:04:00;;;;;;;62.28;19.98;;;;;;;4.89;100.00;103874.41;4910914;29;20641;-72
2022/01/18 14:06:50;;;;;;;56.75;20.52;;;;;;;4.88;100.00;103868.22;4925358;28;20046;-77
2022/01/18 14:09:23;;;;;;;62.60;20.98;;;;;;;4.95;100.00;103869.38;4972457;28;20046;-77
2022/01/18 14:12:05;;;;;;;69.38;21.23;;;;;;;4.92;100.00;103869.25;4971245;28;20081;-72
2022/01/18 14:15:21;;;;;;;61.08;20.95;;;;;;;4.94;100.00;103862.25;4971153;28;20057;-72
2022/01/18 14:24:18;;;;;;;57.00;19.50;;;;;;;4.98;100.00;103849.22;4969978;28;20058;-76
2022/01/18 14:27:15;;;;;;;66.10;21.67;;;;;;;5.01;100.00;103843.16;4972409;28;20289;-72
2022/01/18 14:30:00;;;;;;;72.07;23.08;;;;;;;5.02;100.00;103835.28;4968365;28;20464;-72
2022/01/18 14:32:45;;;;;;;61.95;20.70;;;;;;;5.01;100.00;103829.91;4966654;28;20263;-78
2022/01/18 14:35:16;;;;;;;76.10;22.00;;;;;;;4.99;100.00;103835.16;4968779;28;20042;-77
2022/01/18 14:38:10;;;;;;;71.43;22.92;;;;;;;5.02;100.00;103835.28;4972309;28;20355;-75
2022/01/18 14:40:54;;;;;;;67.72;20.33;;;;;;;5.07;100.00;103838.06;4968276;28;20519;-72
2022/01/18 14:43:47;;;;;;;104.05;26.08;;;;;;;5.01;100.00;103843.16;4966446;28;20081;-77
2022/01/18 14:46:25;;;;;;;81.45;24.35;;;;;;;5.00;100.00;103828.09;4970713;28;20046;-77
2022/01/18 14:49:16;;;;;;;79.80;22.90;;;;;;;4.98;100.00;103824.50;4969188;28;20201;-73
2022/01/18 14:52:11;;;;;;;;;;;;;;;5.02;100.00;103819.41;4967730;28;20101;-72
2022/01/18 14:54:54;;;;;;;62.53;21.00;;;;;;;5.08;100.00;103815.19;4970222;28;20430;-78
2022/01/18 14:57:23;;;;;;;68.07;21.38;;;;;;;5.09;100.00;103815.25;4972658;28;20042;-78
2022/01/18 14:59:58;;;;;;;73.50;23.92;;;;;;;5.06;100.00;103807.19;4970609;28;20061;-78
2022/01/18 15:02:26;;;;;;;57.33;20.73;;;;;;;5.08;100.00;103813.44;4975034;28;20480;-78
2022/01/18 15:05:02;;;;;;;86.95;22.63;;;;;;;5.12;100.00;103803.84;4976404;28;20050;-76
2022/01/18 15:07:47;;;;;;;65.45;22.15;;;;;;;5.06;100.00;103801.88;4972589;28;20127;-74
2022/01/18 15:10:21;;;;;;;72.97;22.25;;;;;;;5.04;100.00;103790.34;4975556;28;20050;-77
2022/01/18 15:12:51;;;;;;;69.30;22.90;;;;;;;5.10;100.00;103798.50;4976836;28;20447;-78
2022/01/18 15:15:28;;;;;;;67.93;22.98;;;;;;;5.07;100.00;103789.53;4975990;28;20134;-72
2022/01/18 15:18:09;;;;;;;62.38;20.90;;;;;;;5.09;100.00;103782.56;4970878;28;20061;-74
2022/01/18 15:20:47;;;;;;;59.72;21.60;;;;;;;5.03;100.00;103775.28;4975281;28;20581;-78
2022/01/18 15:23:14;;;;;;;67.78;22.48;;;;;;;5.09;100.00;103782.56;4973725;28;20046;-78
2022/01/18 15:25:54;;;;;;;61.92;20.77;;;;;;;5.10;100.00;103773.78;4976814;28;20057;-71
2022/01/18 15:28:25;;;;;;;78.07;21.70;;;;;;;5.08;100.00;103767.53;4972744;28;20053;-77
2022/01/18 15:30:54;;;;;;;68.70;20.20;;;;;;;5.08;100.00;103763.13;4977000;28;20112;-77
2022/01/18 15:33:23;;;;;;;66.05;19.83;;;;;;;5.11;100.00;103762.31;4975636;28;20081;-72
2022/01/18 15:35:52;;;;;;;66.75;20.80;;;;;;;5.07;100.00;103761.31;4972232;28;20059;-72
2022/01/18 15:38:22;;;;;;;60.50;21.05;;;;;;;5.06;100.00;103759.53;4975796;28;20050;-78
2022/01/18 15:40:50;;;;;;;73.03;24.17;;;;;;;5.01;100.00;103761.09;4973179;28;20581;-78
2022/01/18 15:43:20;;;;;;;70.05;23.50;;;;;;;5.02;100.00;103760.25;4971062;28;20046;-72
2022/01/18 15:45:49;;;;;;;74.43;23.17;;;;;;;5.02;100.00;103755.88;4976058;28;20053;-72
2022/01/18 15:48:22;;;;;;;75.05;24.05;;;;;;;5.00;100.00;103757.53;4976229;28;20133;-73
2022/01/18 15:51:12;;;;;;;87.47;26.70;;;;;;;4.96;100.00;103757.38;4971942;28;20356;-73
2022/01/18 15:53:45;;;;;;;76.88;25.45;;;;;;;4.95;100.00;103752.94;4971545;28;20051;-73
2022/01/18 15:56:35;;;;;;;67.38;22.80;;;;;;;4.95;100.00;103752.94;4973901;28;20082;-73
2022/01/18 15:59:17;;;;;;;72.63;24.02;;;;;;;4.95;100.00;103745.00;4973773;28;20050;-78
2022/01/18 16:04:52;;;;;;;61.17;23.05;;;;;;;4.92;100.00;103748.44;4950314;28;20064;-78
2022/01/18 16:11:22;;;;;;;65.18;21.45;;;;;;;4.90;100.00;103744.81;4971781;28;20145;-75
2022/01/18 16:14:22;;;;;;;71.47;23.02;;;;;;;4.89;100.00;103748.31;4969534;28;20061;-72
2022/01/18 16:17:11;;;;;;;74.90;23.80;;;;;;;4.87;100.00;103744.72;4974221;28;20058;-79
2022/01/18 16:20:05;;;;;;;69.30;25.05;;;;;;;4.87;100.00;103739.41;4974776;28;20054;-78
2022/01/18 16:22:33;;;;;;;59.38;23.02;;;;;;;4.87;100.00;103739.41;4968099;28;20132;-79
2022/01/18 16:25:19;;;;;;;72.45;22.60;;;;;;;4.85;100.00;103736.72;4974731;28;20129;-73
2022/01/18 16:28:18;;;;;;;78.95;26.67;;;;;;;4.86;100.00;103730.56;4973754;28;20042;-72
2022/01/18 16:31:20;;;;;;;69.38;25.15;;;;;;;4.86;100.00;103730.56;4972148;28;20395;-72
2022/01/18 16:34:13;;;;;;;48.30;19.83;;;;;;;4.82;100.00;103736.59;4971132;28;20054;-76
2022/01/18 16:36:45;;;;;;;56.60;20.48;;;;;;;4.83;100.00;103742.78;4971219;28;20069;-77
2022/01/18 16:39:14;;;;;;;63.53;21.17;;;;;;;4.80;100.00;103733.00;4972443;28;20046;-78
2022/01/18 16:44:35;;;;;;;63.45;22.73;;;;;;;4.72;100.00;103738.84;4971283;28;20058;-72
2022/01/18 16:47:11;;;;;;;56.22;19.15;;;;;;;4.68;100.00;103735.16;4972505;28;20104;-72
2022/01/18 16:56:16;;;;;;;58.53;19.48;;;;;;;4.51;100.00;103729.19;4945169;28;20088;-78
2022/01/18 16:58:50;;;;;;;52.28;20.00;;;;;;;4.43;100.00;103726.28;4972428;28;20074;-78
2022/01/18 17:01:20;;;;;;;59.78;20.63;;;;;;;4.43;100.00;103714.81;4972392;28;20054;-78
2022/01/18 17:03:48;;;;;;;58.92;21.33;;;;;;;4.37;100.00;103725.13;4972910;28;20062;-79
2022/01/18 17:06:17;;;;;;;51.15;20.88;;;;;;;4.32;100.00;103727.56;4972917;28;20145;-79
2022/01/18 17:08:47;;;;;;;69.75;21.95;;;;;;;4.26;100.00;103722.06;4970554;28;20129;-77
2022/01/18 17:11:15;;;;;;;52.22;21.65;;;;;;;4.19;100.00;103727.91;4971977;28;20050;-75
2022/01/18 17:13:45;;;;;;;63.50;24.30;;;;;;;4.16;100.00;103722.53;4969792;28;20064;-77
2022/01/18 17:16:15;;;;;;;58.95;21.80;;;;;;;4.09;100.00;103726.66;4971466;28;20054;-78
2022/01/18 17:19:09;;;;;;;69.07;21.63;;;;;;;4.05;100.00;103723.00;4972986;28;20057;-76